Barnesville, Georgia
Current Conditions -  °F | °C
As of 6:55 AM on Monday 22 Dec 2014 (Local Time) from KOPN Reporting Station
Haze Haze  
Wind Chill:   Ceiling: 200
Heat Index:   Visibility: 1.2mi
Dew Point:   Wind: 7mph
Humidity: 93%   Direction: 80°E
Pressure: 30.04"   Gusts: NA
Location:  33.05°N, 84.16°W
Report Text: KOPN 221155Z AUTO 08006KT 1 1/4SM BR OVC002 09/08 A3004 RMK AO2
Loading
Personal Weather Stations






























Interactive Weather Map New forecast layout! Learn more

10-Day Weather Forecast

Advertisements
Track Severe Weather on mobile